createdAt,value
2017-10-11T00:00:21.055Z,920.28
2017-10-11T00:00:49.014Z,920.28
2017-10-11T00:01:16.877Z,920.31
2017-10-11T00:01:44.854Z,920.31
2017-10-11T00:02:12.712Z,920.3
2017-10-11T00:02:40.672Z,920.33
2017-10-11T00:03:09.333Z,920.32
2017-10-11T00:03:37.268Z,920.33
2017-10-11T00:04:05.160Z,920.35
2017-10-11T00:04:33.915Z,920.34
2017-10-11T00:05:01.871Z,920.35
2017-10-11T00:05:29.726Z,920.35
2017-10-11T00:05:57.702Z,920.28
2017-10-11T00:06:25.573Z,920.33
2017-10-11T00:06:53.448Z,920.32
2017-10-11T00:07:59.436Z,920.34
2017-10-11T00:08:27.404Z,920.31
2017-10-11T00:08:55.368Z,920.35
2017-10-11T00:09:23.246Z,920.35
2017-10-11T00:09:51.207Z,920.34
2017-10-11T00:10:19.182Z,920.34
2017-10-11T00:10:47.163Z,920.37
2017-10-11T00:11:15.231Z,920.34
2017-10-11T00:11:43.198Z,920.37
2017-10-11T00:12:11.081Z,920.35
2017-10-11T00:12:39.040Z,920.37
2017-10-11T00:13:06.920Z,920.39
2017-10-11T00:13:34.687Z,920.4
2017-10-11T00:14:02.561Z,920.37
2017-10-11T00:14:30.405Z,920.37
2017-10-11T00:14:58.180Z,920.38
2017-10-11T00:15:26.144Z,920.38
2017-10-11T00:15:54.807Z,920.41
2017-10-11T00:16:22.813Z,920.4
2017-10-11T00:16:50.675Z,920.43
2017-10-11T00:17:18.688Z,920.45
2017-10-11T00:17:46.674Z,920.45
2017-10-11T00:18:14.533Z,920.45
2017-10-11T00:18:43.206Z,920.47
2017-10-11T00:19:11.161Z,920.48
2017-10-11T00:19:39.103Z,920.51
2017-10-11T00:20:07.054Z,920.51
2017-10-11T00:20:35.013Z,920.49
2017-10-11T00:21:02.978Z,920.52
2017-10-11T00:21:30.937Z,920.53
2017-10-11T00:21:58.920Z,920.47
2017-10-11T00:22:26.893Z,920.48
2017-10-11T00:22:54.883Z,920.52
2017-10-11T00:23:22.652Z,920.47
2017-10-11T00:23:50.623Z,920.46
2017-10-11T00:24:18.599Z,920.46
2017-10-11T00:24:46.571Z,920.46
2017-10-11T00:25:14.541Z,920.42
2017-10-11T00:25:42.422Z,920.46
2017-10-11T00:26:10.308Z,920.47
2017-10-11T00:26:38.161Z,920.45
2017-10-11T00:27:06.120Z,920.49
2017-10-11T00:27:33.999Z,920.46
2017-10-11T00:28:01.855Z,920.5
2017-10-11T00:28:29.811Z,920.52
2017-10-11T00:28:57.772Z,920.52
2017-10-11T00:29:25.452Z,920.51
2017-10-11T00:29:53.425Z,920.52
2017-10-11T00:30:21.451Z,920.56
2017-10-11T00:30:49.222Z,920.55
2017-10-11T00:31:16.987Z,920.54
2017-10-11T00:31:44.864Z,920.57
2017-10-11T00:32:12.739Z,920.55
2017-10-11T00:32:40.676Z,920.58
2017-10-11T00:33:08.634Z,920.56
2017-10-11T00:33:36.433Z,920.58
2017-10-11T00:34:04.307Z,920.53
2017-10-11T00:34:32.323Z,920.54
2017-10-11T00:35:01.085Z,920.48
2017-10-11T00:35:29.049Z,920.49
2017-10-11T00:35:57.014Z,920.51
2017-10-11T00:36:25.138Z,920.5
2017-10-11T00:36:53.102Z,920.51
2017-10-11T00:37:20.970Z,920.5
2017-10-11T00:37:49.744Z,920.5
2017-10-11T00:38:17.719Z,920.5
2017-10-11T00:38:45.668Z,920.48
2017-10-11T00:39:13.442Z,920.52
2017-10-11T00:39:41.398Z,920.46
2017-10-11T00:40:09.360Z,920.48
2017-10-11T00:40:37.331Z,920.45
2017-10-11T00:41:05.287Z,920.4
2017-10-11T00:41:33.169Z,920.42
2017-10-11T00:42:01.744Z,920.42
2017-10-11T00:42:29.710Z,920.41
2017-10-11T00:42:57.683Z,920.44
2017-10-11T00:43:25.474Z,920.43
2017-10-11T00:43:53.330Z,920.44
2017-10-11T00:44:21.276Z,920.45
2017-10-11T00:44:49.241Z,920.42
2017-10-11T00:45:17.109Z,920.44
2017-10-11T00:45:45.071Z,920.44
2017-10-11T00:46:52.457Z,920.44
2017-10-11T00:47:20.347Z,920.48
2017-10-11T00:47:48.325Z,920.51
2017-10-11T00:48:16.129Z,920.5
2017-10-11T00:48:44.015Z,920.51
2017-10-11T00:49:11.902Z,920.51
2017-10-11T00:49:39.887Z,920.53
2017-10-11T00:50:07.859Z,920.52
2017-10-11T00:50:35.655Z,920.53
2017-10-11T00:51:03.534Z,920.59
2017-10-11T00:51:31.395Z,920.53
2017-10-11T00:52:00.290Z,920.54
2017-10-11T00:52:28.236Z,920.53
2017-10-11T00:52:56.419Z,920.56
2017-10-11T00:53:24.357Z,920.57
2017-10-11T00:53:53.015Z,920.56
2017-10-11T00:54:20.798Z,920.54
2017-10-11T00:54:48.593Z,920.57
2017-10-11T00:55:16.555Z,920.58
2017-10-11T00:55:44.557Z,920.55
2017-10-11T00:56:12.518Z,920.59
2017-10-11T00:56:41.289Z,920.56
2017-10-11T00:57:09.252Z,920.55
2017-10-11T00:57:37.116Z,920.57
2017-10-11T00:58:04.986Z,920.59
2017-10-11T00:58:32.847Z,920.56
2017-10-11T00:59:00.796Z,920.6
2017-10-11T00:59:29.605Z,920.61
2017-10-11T00:59:57.558Z,920.59
2017-10-11T01:00:25.514Z,920.62
2017-10-11T01:00:53.387Z,920.63
2017-10-11T01:01:21.243Z,920.58
2017-10-11T01:01:49.247Z,920.61
2017-10-11T01:02:17.984Z,920.57
2017-10-11T01:02:45.951Z,920.57
2017-10-11T01:03:13.936Z,920.58
2017-10-11T01:03:41.810Z,920.58
2017-10-11T01:04:09.600Z,920.52
2017-10-11T01:04:37.551Z,920.53
2017-10-11T01:05:05.420Z,920.56
2017-10-11T01:05:33.182Z,920.58
2017-10-11T01:06:01.138Z,920.57
2017-10-11T01:06:29.010Z,920.55
2017-10-11T01:06:56.993Z,920.58
2017-10-11T01:07:24.972Z,920.55
2017-10-11T01:07:52.974Z,920.58
2017-10-11T01:08:20.923Z,920.56
2017-10-11T01:08:48.895Z,920.6
2017-10-11T01:09:16.768Z,920.54
2017-10-11T01:09:44.835Z,920.57
2017-10-11T01:10:12.787Z,920.53
2017-10-11T01:10:40.735Z,920.54
2017-10-11T01:11:08.605Z,920.52
2017-10-11T01:11:36.361Z,920.55
2017-10-11T01:12:04.997Z,920.54
2017-10-11T01:12:32.881Z,920.55
2017-10-11T01:13:00.737Z,920.53
2017-10-11T01:13:28.704Z,920.56
2017-10-11T01:13:56.486Z,920.59
2017-10-11T01:14:24.352Z,920.55
2017-10-11T01:14:52.198Z,920.55
2017-10-11T01:15:20.163Z,920.54
2017-10-11T01:15:48.031Z,920.54
2017-10-11T01:16:16.171Z,920.51
2017-10-11T01:16:44.037Z,920.47
2017-10-11T01:17:12.003Z,920.52
2017-10-11T01:17:39.868Z,920.49
2017-10-11T01:18:07.640Z,920.5
2017-10-11T01:18:35.585Z,920.46
2017-10-11T01:19:03.535Z,920.46
2017-10-11T01:19:31.318Z,920.49
2017-10-11T01:19:59.260Z,920.46
2017-10-11T01:20:27.129Z,920.48
2017-10-11T01:20:55.079Z,920.5
2017-10-11T01:21:23.038Z,920.49
2017-10-11T01:21:51.000Z,920.5
2017-10-11T01:22:19.900Z,920.52
2017-10-11T01:22:47.858Z,920.57
2017-10-11T01:23:15.803Z,920.57
2017-10-11T01:23:43.677Z,920.58
2017-10-11T01:24:11.647Z,920.59
2017-10-11T01:24:39.620Z,920.61
2017-10-11T01:25:46.616Z,920.61
2017-10-11T01:26:14.309Z,920.63
2017-10-11T01:26:43.064Z,920.63
2017-10-11T01:27:11.828Z,920.66
2017-10-11T01:27:39.802Z,920.66
2017-10-11T01:28:08.095Z,920.67
2017-10-11T01:28:36.091Z,920.68
2017-10-11T01:29:03.981Z,920.67
2017-10-11T01:29:31.843Z,920.63
2017-10-11T01:29:59.624Z,920.63
2017-10-11T01:30:27.489Z,920.63
2017-10-11T01:30:55.453Z,920.59
2017-10-11T01:31:23.323Z,920.62
2017-10-11T01:31:51.185Z,920.59
2017-10-11T01:32:19.039Z,920.59
2017-10-11T01:32:46.895Z,920.55
2017-10-11T01:33:15.646Z,920.54
2017-10-11T01:33:43.618Z,920.55
2017-10-11T01:34:11.585Z,920.52
2017-10-11T01:34:39.455Z,920.51
2017-10-11T01:35:07.533Z,920.47
2017-10-11T01:35:36.283Z,920.46
2017-10-11T01:36:04.244Z,920.48
2017-10-11T01:36:32.188Z,920.45
2017-10-11T01:37:00.050Z,920.42
2017-10-11T01:37:28.014Z,920.48
2017-10-11T01:37:55.774Z,920.45
2017-10-11T01:38:24.725Z,920.47
2017-10-11T01:38:52.482Z,920.49
2017-10-11T01:39:20.348Z,920.5
2017-10-11T01:39:48.214Z,920.49
2017-10-11T01:40:16.083Z,920.51
2017-10-11T01:40:43.951Z,920.53
